Mountain Fork River (Oklahoma), Eagleville (07339000)

StateOklahomaLatestFlood (6910 cfs)
RiverMountain Fork RiverRatingObservedEstimated
Updated2020-02-25 21:30 (1 hour ago)Flood - The river is flooding. Obstacles can be treacherous or deadly. The river should be avoided at this stage for casual trips and definitely for the inexperienced. Trips should be attempted only with protective gear and equipment.Flood(none)6210
Discharge6910 cfs (median: 1610 cfs)High - The river is high and potentially dangerous, especially for the young and / or inexperienced. Normal stream obstacles are sometimes difficult to navigate. Extended distances can be attempted, but canoe travel may not be advisable.High(none)960
Height7.07 feetGood - Conditions are ideal for a canoe or kayak. Boats typically will drag on fewer than one-quarter of riffles, if at all, and portages are unnecessary or rare. Normal float lengths can be attempted without a problem.Good(none)712
TrendFalling (rising over 24 hours)Low - River is low but can still be floated. Some riffles are okay but most come with significant dragging and might need a portage. Float lengths should be reduced to accommodate low flow, dragging, and portages.Low(none)655
USGSExternal icon USGS Site (External icon Google Maps)Poor - River is too low to float comfortably. Most or all riffles will drag or must be portaged and some obstacles (such as slick shelf rock) cause undue problems. Avoid the river at this stage for casual paddling trips.Poor(none)197

Trending Data

Plot Image

Trips for Mountain Fork River (Oklahoma), Eagleville (07339000)

DateStartEndDistanceConditionDischargeHeightFishingDetails
Click for details2003-07-06 Rereg Dam US 70 Total trip distance: 3.2 miles3.2 Good 363 None NoneNone Fillmore, Brian
Wann, Denny
Fillmore, Brian; Wann, Denny
No notes for this trip<i>No notes for this trip</i> USGS Gauge Data:
Eagleville (07339000)
Discharge: 363
Height:
<b>USGS Gauge Data:</b></br />Eagleville (07339000)<br />Discharge: 363<br />Height:
Source: FillmoreSource: Fillmore

A total of 1 rows are displayed.

Trip Summary for Mountain Fork River (Oklahoma), Eagleville (07339000)

Miles3.2
Trips1
People2
Dates1
Years1
Months1
Rows1
Sources1

Condition Descriptions

Fishing Conditions

Fish Species

Notes

Classic Trip List

The classic River Trips application is still available for use. It is updated with the new system using a data retrofit. It is no longer maintained. The original River Trips application is no longer updated (as of 1 Dec 2016) but can be checked for errors or for the condition of the data before it was converted to the new system.

Gauge Data Table

ObservationHeightDischargeMaximum
Discharge
Minimum
Discharge
Mean
Discharge
P05P10P20P25P50
(Median)
P75P80P90P95
2020-02-25 21:30 7.07 6910 6980 (1989) 68 (1996) 1700 116 180 372 551 1610 2580 2780 3340 3530
2020-02-25 20:30 7.55 7370 6980 (1989) 68 (1996) 1700 116 180 372 551 1610 2580 2780 3340 3530
2020-02-25 19:30 7.56 7380 6980 (1989) 68 (1996) 1700 116 180 372 551 1610 2580 2780 3340 3530
2020-02-25 18:30 7.57 7390 6980 (1989) 68 (1996) 1700 116 180 372 551 1610 2580 2780 3340 3530
2020-02-25 17:30 7.55 7370 6980 (1989) 68 (1996) 1700 116 180 372 551 1610 2580 2780 3340 3530
2020-02-25 16:30 7.51 7330 6980 (1989) 68 (1996) 1700 116 180 372 551 1610 2580 2780 3340 3530
2020-02-25 15:30 7.43 7250 6980 (1989) 68 (1996) 1700 116 180 372 551 1610 2580 2780 3340 3530
2020-02-25 14:30 7.23 7060 6980 (1989) 68 (1996) 1700 116 180 372 551 1610 2580 2780 3340 3530
2020-02-25 13:30 6.65 6510 6980 (1989) 68 (1996) 1700 116 180 372 551 1610 2580 2780 3340 3530
2020-02-25 12:30 5.44 4520 6980 (1989) 68 (1996) 1700 116 180 372 551 1610 2580 2780 3340 3530
2020-02-25 11:30 4.82 3610 6980 (1989) 68 (1996) 1700 116 180 372 551 1610 2580 2780 3340 3530
2020-02-25 10:30 4.37 3000 6980 (1989) 68 (1996) 1700 116 180 372 551 1610 2580 2780 3340 3530
2020-02-25 09:30 3.65 2120 6980 (1989) 68 (1996) 1700 116 180 372 551 1610 2580 2780 3340 3530
2020-02-25 08:30 2.81 1260 6980 (1989) 68 (1996) 1700 116 180 372 551 1610 2580 2780 3340 3530
2020-02-25 07:30 2.44 974 6980 (1989) 68 (1996) 1700 116 180 372 551 1610 2580 2780 3340 3530
2020-02-25 06:30 2.50 1010 6980 (1989) 68 (1996) 1700 116 180 372 551 1610 2580 2780 3340 3530
2020-02-25 05:30 2.63 1100 6980 (1989) 68 (1996) 1700 116 180 372 551 1610 2580 2780 3340 3530
2020-02-25 04:30 2.77 1220 6980 (1989) 68 (1996) 1700 116 180 372 551 1610 2580 2780 3340 3530
2020-02-25 03:30 2.92 1360 6980 (1989) 68 (1996) 1700 116 180 372 551 1610 2580 2780 3340 3530
2020-02-25 01:30 3.28 1720 6980 (1989) 68 (1996) 1700 116 180 372 551 1610 2580 2780 3340 3530
2020-02-25 00:30 3.49 1940 6980 (1989) 68 (1996) 1700 116 180 372 551 1610 2580 2780 3340 3530
2020-02-24 23:30 3.73 2210 6370 (1989) 66 (1996) 1580 117 155 205 433 1150 2520 2630 3350 4450
2020-02-24 22:30 3.94 2460 6370 (1989) 66 (1996) 1580 117 155 205 433 1150 2520 2630 3350 4450
2020-02-24 21:30 4.19 2760 6370 (1989) 66 (1996) 1580 117 155 205 433 1150 2520 2630 3350 4450
2020-02-24 20:30 4.43 3070 6370 (1989) 66 (1996) 1580 117 155 205 433 1150 2520 2630 3350 4450
2020-02-24 19:30 4.72 3470 6370 (1989) 66 (1996) 1580 117 155 205 433 1150 2520 2630 3350 4450
2020-02-24 18:30 5.10 4010 6370 (1989) 66 (1996) 1580 117 155 205 433 1150 2520 2630 3350 4450
2020-02-24 17:30 5.57 4720 6370 (1989) 66 (1996) 1580 117 155 205 433 1150 2520 2630 3350 4450
2020-02-24 16:30 6.41 6100 6370 (1989) 66 (1996) 1580 117 155 205 433 1150 2520 2630 3350 4450
2020-02-24 15:30 7.30 7130 6370 (1989) 66 (1996) 1580 117 155 205 433 1150 2520 2630 3350 4450
2020-02-24 14:30 7.59 7400 6370 (1989) 66 (1996) 1580 117 155 205 433 1150 2520 2630 3350 4450
2020-02-24 13:30 7.56 7380 6370 (1989) 66 (1996) 1580 117 155 205 433 1150 2520 2630 3350 4450
2020-02-24 12:30 7.58 7390 6370 (1989) 66 (1996) 1580 117 155 205 433 1150 2520 2630 3350 4450
2020-02-24 11:30 7.57 7390 6370 (1989) 66 (1996) 1580 117 155 205 433 1150 2520 2630 3350 4450
2020-02-24 10:30 7.60 7410 6370 (1989) 66 (1996) 1580 117 155 205 433 1150 2520 2630 3350 4450
2020-02-24 09:30 7.59 7400 6370 (1989) 66 (1996) 1580 117 155 205 433 1150 2520 2630 3350 4450
2020-02-24 08:30 7.58 7390 6370 (1989) 66 (1996) 1580 117 155 205 433 1150 2520 2630 3350 4450
2020-02-24 07:30 7.61 7420 6370 (1989) 66 (1996) 1580 117 155 205 433 1150 2520 2630 3350 4450
2020-02-24 06:30 7.58 7390 6370 (1989) 66 (1996) 1580 117 155 205 433 1150 2520 2630 3350 4450
2020-02-24 05:30 7.58 7390 6370 (1989) 66 (1996) 1580 117 155 205 433 1150 2520 2630 3350 4450
2020-02-24 04:30 7.58 7390 6370 (1989) 66 (1996) 1580 117 155 205 433 1150 2520 2630 3350 4450
2020-02-24 03:30 7.58 7390 6370 (1989) 66 (1996) 1580 117 155 205 433 1150 2520 2630 3350 4450
2020-02-24 02:30 7.58 7390 6370 (1989) 66 (1996) 1580 117 155 205 433 1150 2520 2630 3350 4450
2020-02-24 01:30 7.59 7400 6370 (1989) 66 (1996) 1580 117 155 205 433 1150 2520 2630 3350 4450
2020-02-24 00:30 7.60 7410 6370 (1989) 66 (1996) 1580 117 155 205 433 1150 2520 2630 3350 4450
2020-02-23 23:30 7.58 7390 7050 (2001) 68 (1996) 1660 95 231 359 437 1290 2770 2890 3430 4730
2020-02-23 22:30 7.55 7370 7050 (2001) 68 (1996) 1660 95 231 359 437 1290 2770 2890 3430 4730
2020-02-23 21:30 7.57 7390 7050 (2001) 68 (1996) 1660 95 231 359 437 1290 2770 2890 3430 4730
2020-02-23 20:30 7.58 7390 7050 (2001) 68 (1996) 1660 95 231 359 437 1290 2770 2890 3430 4730
2020-02-23 19:30 7.60 7410 7050 (2001) 68 (1996) 1660 95 231 359 437 1290 2770 2890 3430 4730
2020-02-23 18:30 7.60 7410 7050 (2001) 68 (1996) 1660 95 231 359 437 1290 2770 2890 3430 4730
2020-02-23 17:30 7.59 7400 7050 (2001) 68 (1996) 1660 95 231 359 437 1290 2770 2890 3430 4730
2020-02-23 16:30 7.60 7410 7050 (2001) 68 (1996) 1660 95 231 359 437 1290 2770 2890 3430 4730
2020-02-23 15:30 7.56 7380 7050 (2001) 68 (1996) 1660 95 231 359 437 1290 2770 2890 3430 4730
2020-02-23 14:30 7.56 7380 7050 (2001) 68 (1996) 1660 95 231 359 437 1290 2770 2890 3430 4730
2020-02-23 13:30 7.56 7380 7050 (2001) 68 (1996) 1660 95 231 359 437 1290 2770 2890 3430 4730
2020-02-23 12:30 7.56 7380 7050 (2001) 68 (1996) 1660 95 231 359 437 1290 2770 2890 3430 4730
2020-02-23 11:30 7.54 7360 7050 (2001) 68 (1996) 1660 95 231 359 437 1290 2770 2890 3430 4730
2020-02-23 10:30 7.57 7390 7050 (2001) 68 (1996) 1660 95 231 359 437 1290 2770 2890 3430 4730
2020-02-23 09:30 7.57 7390 7050 (2001) 68 (1996) 1660 95 231 359 437 1290 2770 2890 3430 4730
2020-02-23 08:30 7.55 7370 7050 (2001) 68 (1996) 1660 95 231 359 437 1290 2770 2890 3430 4730
2020-02-23 07:30 7.57 7390 7050 (2001) 68 (1996) 1660 95 231 359 437 1290 2770 2890 3430 4730
2020-02-23 06:30 7.55 7370 7050 (2001) 68 (1996) 1660 95 231 359 437 1290 2770 2890 3430 4730
2020-02-23 05:30 7.54 7360 7050 (2001) 68 (1996) 1660 95 231 359 437 1290 2770 2890 3430 4730
2020-02-23 04:30 7.56 7380 7050 (2001) 68 (1996) 1660 95 231 359 437 1290 2770 2890 3430 4730
2020-02-23 03:30 7.55 7370 7050 (2001) 68 (1996) 1660 95 231 359 437 1290 2770 2890 3430 4730
2020-02-23 02:30 7.54 7360 7050 (2001) 68 (1996) 1660 95 231 359 437 1290 2770 2890 3430 4730
2020-02-23 01:30 7.55 7370 7050 (2001) 68 (1996) 1660 95 231 359 437 1290 2770 2890 3430 4730
2020-02-23 00:30 7.55 7370 7050 (2001) 68 (1996) 1660 95 231 359 437 1290 2770 2890 3430 4730
2020-02-22 23:30 7.55 7370 5600 (1989) 76 (1996) 1440 98 112 303 415 1310 1870 2450 3330 4070
2020-02-22 22:30 7.57 7390 5600 (1989) 76 (1996) 1440 98 112 303 415 1310 1870 2450 3330 4070
2020-02-22 21:30 7.56 7380 5600 (1989) 76 (1996) 1440 98 112 303 415 1310 1870 2450 3330 4070
2020-02-22 20:30 7.60 7410 5600 (1989) 76 (1996) 1440 98 112 303 415 1310 1870 2450 3330 4070
2020-02-22 19:30 7.58 7390 5600 (1989) 76 (1996) 1440 98 112 303 415 1310 1870 2450 3330 4070
2020-02-22 18:30 7.58 7390 5600 (1989) 76 (1996) 1440 98 112 303 415 1310 1870 2450 3330 4070
2020-02-22 17:30 7.58 7390 5600 (1989) 76 (1996) 1440 98 112 303 415 1310 1870 2450 3330 4070
2020-02-22 16:30 7.56 7380 5600 (1989) 76 (1996) 1440 98 112 303 415 1310 1870 2450 3330 4070
2020-02-22 15:30 7.55 7370 5600 (1989) 76 (1996) 1440 98 112 303 415 1310 1870 2450 3330 4070
2020-02-22 14:30 7.53 7350 5600 (1989) 76 (1996) 1440 98 112 303 415 1310 1870 2450 3330 4070
2020-02-22 13:30 7.53 7350 5600 (1989) 76 (1996) 1440 98 112 303 415 1310 1870 2450 3330 4070
2020-02-22 12:30 7.55 7370 5600 (1989) 76 (1996) 1440 98 112 303 415 1310 1870 2450 3330 4070
2020-02-22 11:30 7.54 7360 5600 (1989) 76 (1996) 1440 98 112 303 415 1310 1870 2450 3330 4070
2020-02-22 10:30 7.54 7360 5600 (1989) 76 (1996) 1440 98 112 303 415 1310 1870 2450 3330 4070
2020-02-22 09:30 7.54 7360 5600 (1989) 76 (1996) 1440 98 112 303 415 1310 1870 2450 3330 4070
2020-02-22 08:30 7.56 7380 5600 (1989) 76 (1996) 1440 98 112 303 415 1310 1870 2450 3330 4070
2020-02-22 07:30 7.55 7370 5600 (1989) 76 (1996) 1440 98 112 303 415 1310 1870 2450 3330 4070
2020-02-22 06:30 7.56 7380 5600 (1989) 76 (1996) 1440 98 112 303 415 1310 1870 2450 3330 4070
2020-02-22 05:30 7.53 7350 5600 (1989) 76 (1996) 1440 98 112 303 415 1310 1870 2450 3330 4070
2020-02-22 04:30 7.56 7380 5600 (1989) 76 (1996) 1440 98 112 303 415 1310 1870 2450 3330 4070
2020-02-22 03:30 7.56 7380 5600 (1989) 76 (1996) 1440 98 112 303 415 1310 1870 2450 3330 4070
2020-02-22 02:30 7.54 7360 5600 (1989) 76 (1996) 1440 98 112 303 415 1310 1870 2450 3330 4070
2020-02-22 01:30 7.53 7350 5600 (1989) 76 (1996) 1440 98 112 303 415 1310 1870 2450 3330 4070
2020-02-22 00:30 7.52 7340 5600 (1989) 76 (1996) 1440 98 112 303 415 1310 1870 2450 3330 4070
2020-02-21 23:30 7.55 7370 4760 (1989) 97 (2006) 1420 103 181 249 347 1190 2120 2660 3340 3840
2020-02-21 22:30 7.54 7360 4760 (1989) 97 (2006) 1420 103 181 249 347 1190 2120 2660 3340 3840
2020-02-21 21:30 7.55 7370 4760 (1989) 97 (2006) 1420 103 181 249 347 1190 2120 2660 3340 3840
2020-02-21 20:30 7.55 7370 4760 (1989) 97 (2006) 1420 103 181 249 347 1190 2120 2660 3340 3840
2020-02-21 19:30 7.57 7390 4760 (1989) 97 (2006) 1420 103 181 249 347 1190 2120 2660 3340 3840
2020-02-21 18:30 7.59 7400 4760 (1989) 97 (2006) 1420 103 181 249 347 1190 2120 2660 3340 3840
2020-02-21 17:30 7.59 7400 4760 (1989) 97 (2006) 1420 103 181 249 347 1190 2120 2660 3340 3840
2020-02-21 16:30 7.58 7390 4760 (1989) 97 (2006) 1420 103 181 249 347 1190 2120 2660 3340 3840
2020-02-21 15:30 7.57 7390 4760 (1989) 97 (2006) 1420 103 181 249 347 1190 2120 2660 3340 3840
2020-02-21 14:30 7.58 7390 4760 (1989) 97 (2006) 1420 103 181 249 347 1190 2120 2660 3340 3840
2020-02-21 13:30 7.60 7410 4760 (1989) 97 (2006) 1420 103 181 249 347 1190 2120 2660 3340 3840
2020-02-21 12:30 7.57 7390 4760 (1989) 97 (2006) 1420 103 181 249 347 1190 2120 2660 3340 3840
2020-02-21 11:30 7.56 7380 4760 (1989) 97 (2006) 1420 103 181 249 347 1190 2120 2660 3340 3840
2020-02-21 10:30 7.57 7390 4760 (1989) 97 (2006) 1420 103 181 249 347 1190 2120 2660 3340 3840
2020-02-21 09:30 7.58 7390 4760 (1989) 97 (2006) 1420 103 181 249 347 1190 2120 2660 3340 3840
2020-02-21 08:30 7.58 7390 4760 (1989) 97 (2006) 1420 103 181 249 347 1190 2120 2660 3340 3840
2020-02-21 07:30 7.54 7360 4760 (1989) 97 (2006) 1420 103 181 249 347 1190 2120 2660 3340 3840
2020-02-21 06:30 7.53 7350 4760 (1989) 97 (2006) 1420 103 181 249 347 1190 2120 2660 3340 3840
2020-02-21 05:30 7.52 7340 4760 (1989) 97 (2006) 1420 103 181 249 347 1190 2120 2660 3340 3840
2020-02-21 04:30 7.55 7370 4760 (1989) 97 (2006) 1420 103 181 249 347 1190 2120 2660 3340 3840
2020-02-21 03:30 7.53 7350 4760 (1989) 97 (2006) 1420 103 181 249 347 1190 2120 2660 3340 3840
2020-02-21 02:30 7.56 7380 4760 (1989) 97 (2006) 1420 103 181 249 347 1190 2120 2660 3340 3840
2020-02-21 01:30 7.54 7360 4760 (1989) 97 (2006) 1420 103 181 249 347 1190 2120 2660 3340 3840
2020-02-21 00:30 7.55 7370 4760 (1989) 97 (2006) 1420 103 181 249 347 1190 2120 2660 3340 3840
2020-02-20 23:30 7.56 7380 5930 (1998) 66 (1996) 1440 96 119 210 292 806 2670 3020 3850 4320
2020-02-20 22:30 7.54 7360 5930 (1998) 66 (1996) 1440 96 119 210 292 806 2670 3020 3850 4320
2020-02-20 21:30 7.57 7390 5930 (1998) 66 (1996) 1440 96 119 210 292 806 2670 3020 3850 4320
2020-02-20 20:30 7.55 7370 5930 (1998) 66 (1996) 1440 96 119 210 292 806 2670 3020 3850 4320
2020-02-20 19:30 7.55 7370 5930 (1998) 66 (1996) 1440 96 119 210 292 806 2670 3020 3850 4320
2020-02-20 18:30 7.57 7390 5930 (1998) 66 (1996) 1440 96 119 210 292 806 2670 3020 3850 4320
2020-02-20 17:30 7.56 7380 5930 (1998) 66 (1996) 1440 96 119 210 292 806 2670 3020 3850 4320
2020-02-20 16:30 7.55 7370 5930 (1998) 66 (1996) 1440 96 119 210 292 806 2670 3020 3850 4320
2020-02-20 15:30 7.57 7390 5930 (1998) 66 (1996) 1440 96 119 210 292 806 2670 3020 3850 4320
2020-02-20 14:30 7.57 7390 5930 (1998) 66 (1996) 1440 96 119 210 292 806 2670 3020 3850 4320
2020-02-20 13:30 7.58 7390 5930 (1998) 66 (1996) 1440 96 119 210 292 806 2670 3020 3850 4320
2020-02-20 12:30 7.58 7390 5930 (1998) 66 (1996) 1440 96 119 210 292 806 2670 3020 3850 4320
2020-02-20 11:30 7.56 7380 5930 (1998) 66 (1996) 1440 96 119 210 292 806 2670 3020 3850 4320
2020-02-20 10:30 7.57 7390 5930 (1998) 66 (1996) 1440 96 119 210 292 806 2670 3020 3850 4320
2020-02-20 09:30 7.57 7390 5930 (1998) 66 (1996) 1440 96 119 210 292 806 2670 3020 3850 4320
2020-02-20 08:30 7.56 7380 5930 (1998) 66 (1996) 1440 96 119 210 292 806 2670 3020 3850 4320
2020-02-20 07:30 7.58 7390 5930 (1998) 66 (1996) 1440 96 119 210 292 806 2670 3020 3850 4320
2020-02-20 06:30 7.54 7360 5930 (1998) 66 (1996) 1440 96 119 210 292 806 2670 3020 3850 4320
2020-02-20 05:30 7.59 7400 5930 (1998) 66 (1996) 1440 96 119 210 292 806 2670 3020 3850 4320
2020-02-20 04:30 7.55 7370 5930 (1998) 66 (1996) 1440 96 119 210 292 806 2670 3020 3850 4320
2020-02-20 03:30 7.54 7360 5930 (1998) 66 (1996) 1440 96 119 210 292 806 2670 3020 3850 4320
2020-02-20 02:30 7.54 7360 5930 (1998) 66 (1996) 1440 96 119 210 292 806 2670 3020 3850 4320
2020-02-20 01:30 7.53 7350 5930 (1998) 66 (1996) 1440 96 119 210 292 806 2670 3020 3850 4320
2020-02-20 00:30 7.52 7340 5930 (1998) 66 (1996) 1440 96 119 210 292 806 2670 3020 3850 4320
2020-02-19 22:30 7.53 7350 6350 (1998) 66 (1996) 1620 102 141 249 293 851 2840 3160 4310 5340
2020-02-19 21:30 7.51 7330 6350 (1998) 66 (1996) 1620 102 141 249 293 851 2840 3160 4310 5340
2020-02-19 20:30 7.50 7320 6350 (1998) 66 (1996) 1620 102 141 249 293 851 2840 3160 4310 5340
2020-02-19 19:30 7.54 7360 6350 (1998) 66 (1996) 1620 102 141 249 293 851 2840 3160 4310 5340
2020-02-19 18:30 7.55 7370 6350 (1998) 66 (1996) 1620 102 141 249 293 851 2840 3160 4310 5340
2020-02-19 17:30 7.53 7350 6350 (1998) 66 (1996) 1620 102 141 249 293 851 2840 3160 4310 5340
2020-02-19 16:30 7.52 7340 6350 (1998) 66 (1996) 1620 102 141 249 293 851 2840 3160 4310 5340
2020-02-19 15:30 7.54 7360 6350 (1998) 66 (1996) 1620 102 141 249 293 851 2840 3160 4310 5340
2020-02-19 14:30 7.52 7340 6350 (1998) 66 (1996) 1620 102 141 249 293 851 2840 3160 4310 5340
2020-02-19 13:30 7.54 7360 6350 (1998) 66 (1996) 1620 102 141 249 293 851 2840 3160 4310 5340
2020-02-19 12:30 7.57 7390 6350 (1998) 66 (1996) 1620 102 141 249 293 851 2840 3160 4310 5340
2020-02-19 11:30 7.57 7390 6350 (1998) 66 (1996) 1620 102 141 249 293 851 2840 3160 4310 5340
2020-02-19 10:30 7.54 7360 6350 (1998) 66 (1996) 1620 102 141 249 293 851 2840 3160 4310 5340
2020-02-19 09:30 7.52 7340 6350 (1998) 66 (1996) 1620 102 141 249 293 851 2840 3160 4310 5340
2020-02-19 08:30 7.53 7350 6350 (1998) 66 (1996) 1620 102 141 249 293 851 2840 3160 4310 5340
2020-02-19 07:30 7.54 7360 6350 (1998) 66 (1996) 1620 102 141 249 293 851 2840 3160 4310 5340
2020-02-19 06:30 7.52 7340 6350 (1998) 66 (1996) 1620 102 141 249 293 851 2840 3160 4310 5340
2020-02-19 05:30 7.53 7350 6350 (1998) 66 (1996) 1620 102 141 249 293 851 2840 3160 4310 5340
2020-02-19 04:30 7.56 7380 6350 (1998) 66 (1996) 1620 102 141 249 293 851 2840 3160 4310 5340
2020-02-19 03:30 7.56 7380 6350 (1998) 66 (1996) 1620 102 141 249 293 851 2840 3160 4310 5340
2020-02-19 02:30 7.54 7360 6350 (1998) 66 (1996) 1620 102 141 249 293 851 2840 3160 4310 5340
2020-02-19 01:30 7.55 7370 6350 (1998) 66 (1996) 1620 102 141 249 293 851 2840 3160 4310 5340
2020-02-19 00:30 7.55 7370 6350 (1998) 66 (1996) 1620 102 141 249 293 851 2840 3160 4310 5340
2020-02-18 23:30 7.57 7390 7150 (1986) 86 (1996) 1720 108 135 309 384 1130 2620 2870 4020 6170
2020-02-18 22:30 7.58 7390 7150 (1986) 86 (1996) 1720 108 135 309 384 1130 2620 2870 4020 6170
2020-02-18 21:30 7.58 7390 7150 (1986) 86 (1996) 1720 108 135 309 384 1130 2620 2870 4020 6170
2020-02-18 20:30 7.56 7380 7150 (1986) 86 (1996) 1720 108 135 309 384 1130 2620 2870 4020 6170
2020-02-18 19:30 7.57 7390 7150 (1986) 86 (1996) 1720 108 135 309 384 1130 2620 2870 4020 6170
2020-02-18 18:30 7.57 7390 7150 (1986) 86 (1996) 1720 108 135 309 384 1130 2620 2870 4020 6170
2020-02-18 17:30 7.55 7370 7150 (1986) 86 (1996) 1720 108 135 309 384 1130 2620 2870 4020 6170
2020-02-18 16:30 7.51 7330 7150 (1986) 86 (1996) 1720 108 135 309 384 1130 2620 2870 4020 6170
2020-02-18 15:30 7.53 7350 7150 (1986) 86 (1996) 1720 108 135 309 384 1130 2620 2870 4020 6170
2020-02-18 14:30 7.55 7370 7150 (1986) 86 (1996) 1720 108 135 309 384 1130 2620 2870 4020 6170
2020-02-18 13:30 7.54 7360 7150 (1986) 86 (1996) 1720 108 135 309 384 1130 2620 2870 4020 6170
2020-02-18 12:30 7.49 7310 7150 (1986) 86 (1996) 1720 108 135 309 384 1130 2620 2870 4020 6170
2020-02-18 11:30 7.49 7310 7150 (1986) 86 (1996) 1720 108 135 309 384 1130 2620 2870 4020 6170
2020-02-18 10:30 7.47 7290 7150 (1986) 86 (1996) 1720 108 135 309 384 1130 2620 2870 4020 6170
2020-02-18 09:30 7.50 7320 7150 (1986) 86 (1996) 1720 108 135 309 384 1130 2620 2870 4020 6170
2020-02-18 08:30 7.50 7320 7150 (1986) 86 (1996) 1720 108 135 309 384 1130 2620 2870 4020 6170
2020-02-18 07:30 7.50 7320 7150 (1986) 86 (1996) 1720 108 135 309 384 1130 2620 2870 4020 6170
2020-02-18 06:30 7.49 7310 7150 (1986) 86 (1996) 1720 108 135 309 384 1130 2620 2870 4020 6170
2020-02-18 05:30 7.49 7310 7150 (1986) 86 (1996) 1720 108 135 309 384 1130 2620 2870 4020 6170
2020-02-18 04:30 7.47 7290 7150 (1986) 86 (1996) 1720 108 135 309 384 1130 2620 2870 4020 6170
2020-02-18 03:30 7.49 7310 7150 (1986) 86 (1996) 1720 108 135 309 384 1130 2620 2870 4020 6170
2020-02-18 02:30 7.48 7300 7150 (1986) 86 (1996) 1720 108 135 309 384 1130 2620 2870 4020 6170
2020-02-18 01:30 7.45 7270 7150 (1986) 86 (1996) 1720 108 135 309 384 1130 2620 2870 4020 6170
2020-02-18 00:30 7.44 7260 7150 (1986) 86 (1996) 1720 108 135 309 384 1130 2620 2870 4020 6170

A total of 188 rows are displayed for years 1970 through 2019.